Time;durP1;ratioP1;P1;durP2;ratioP2;P2;SDS_P1;SDS_P2;PMS_P1;PMS_P2;Temp;Humidity;BMP_temperature;BMP_pressure;BME280_temperature;BME280_humidity;BME280_pressure;Samples;Min_cycle;Max_cycle;Signal;HPM_P1;HPM_P2
2022/03/15 00:00:34;;;;;;;9.90;3.60;;;5.10;99.90;;;;;;5076873;28;20175;-77
2022/03/15 00:03:00;;;;;;;11.53;3.80;;;5.10;99.90;;;;;;5077334;28;20190;-78
2022/03/15 00:05:26;;;;;;;5.07;2.97;;;5.10;99.90;;;;;;5077740;28;20181;-78
2022/03/15 00:07:51;;;;;;;5.57;3.10;;;5.10;99.90;;;;;;5059479;28;20182;-78
2022/03/15 00:10:18;;;;;;;4.57;2.77;;;5.10;99.90;;;;;;5078125;28;20281;-78
2022/03/15 00:12:45;;;;;;;7.53;3.20;;;5.10;99.90;;;;;;5078062;28;20202;-78
2022/03/15 00:15:11;;;;;;;4.87;2.90;;;5.00;99.90;;;;;;5078251;28;20183;-78
2022/03/15 00:17:38;;;;;;;4.80;3.60;;;5.10;99.90;;;;;;5060329;28;20175;-78
2022/03/15 00:20:06;;;;;;;5.93;2.77;;;5.10;99.90;;;;;;5078824;28;20213;-78
2022/03/15 00:22:34;;;;;;;5.63;3.33;;;5.00;99.90;;;;;;5078003;28;20187;-78
2022/03/15 00:25:01;;;;;;;9.23;3.27;;;5.00;99.90;;;;;;5078040;28;20171;-78
2022/03/15 00:27:27;;;;;;;6.47;3.30;;;5.00;99.90;;;;;;5058708;28;20175;-77
2022/03/15 00:29:53;;;;;;;4.60;2.80;;;5.00;99.90;;;;;;5075583;28;20182;-77
2022/03/15 00:32:19;;;;;;;6.80;3.30;;;5.00;99.90;;;;;;5075019;28;20236;-77
2022/03/15 00:34:44;;;;;;;8.13;3.33;;;5.00;99.90;;;;;;5075151;28;20171;-77
2022/03/15 00:37:10;;;;;;;6.80;3.30;;;5.00;99.90;;;;;;5075583;28;20220;-78
2022/03/15 00:39:35;;;;;;;7.33;3.40;;;5.00;99.90;;;;;;5075068;28;20543;-77
2022/03/15 00:42:01;;;;;;;8.60;3.17;;;4.90;99.90;;;;;;5075083;28;20178;-78
2022/03/15 00:44:27;;;;;;;7.83;3.70;;;4.90;99.90;;;;;;5076265;28;20264;-78
2022/03/15 00:46:52;;;;;;;8.10;3.73;;;4.90;99.90;;;;;;5075263;28;20194;-78
2022/03/15 00:49:18;;;;;;;6.30;4.00;;;4.90;99.90;;;;;;5075043;28;20193;-78
2022/03/15 00:51:44;;;;;;;8.73;4.53;;;4.90;99.90;;;;;;5075230;28;20293;-78
2022/03/15 00:54:09;;;;;;;7.57;4.03;;;4.80;99.90;;;;;;5074738;28;20664;-77
2022/03/15 00:56:35;;;;;;;7.93;3.80;;;4.80;99.90;;;;;;5056968;28;20171;-78
2022/03/15 00:59:01;;;;;;;6.83;3.90;;;4.80;99.90;;;;;;5075087;28;20179;-78
2022/03/15 01:01:26;;;;;;;6.87;3.60;;;4.70;99.90;;;;;;5075139;28;20249;-78
2022/03/15 01:03:52;;;;;;;8.20;3.60;;;4.80;99.90;;;;;;5075088;28;20719;-78
2022/03/15 01:06:17;;;;;;;5.67;3.83;;;4.70;99.90;;;;;;5075016;28;20675;-78
2022/03/15 01:08:43;;;;;;;5.27;3.77;;;4.70;99.90;;;;;;5074630;28;20668;-78
2022/03/15 01:11:08;;;;;;;8.37;3.90;;;4.70;99.90;;;;;;5074521;28;20175;-78
2022/03/15 01:13:34;;;;;;;7.80;3.63;;;4.70;99.90;;;;;;5056636;28;20198;-76
2022/03/15 01:16:00;;;;;;;8.77;3.83;;;4.60;99.90;;;;;;5074645;28;20178;-77
2022/03/15 01:18:25;;;;;;;13.57;4.60;;;4.60;99.90;;;;;;5056557;28;20167;-78
2022/03/15 01:20:51;;;;;;;6.80;3.70;;;4.60;99.90;;;;;;5074468;28;20178;-78
2022/03/15 01:23:17;;;;;;;7.00;3.37;;;4.50;99.90;;;;;;5074609;28;20187;-78
2022/03/15 01:25:43;;;;;;;6.77;3.93;;;4.50;99.90;;;;;;5074854;28;20178;-78
2022/03/15 01:28:09;;;;;;;4.50;3.40;;;4.50;99.90;;;;;;5074891;28;20170;-78
2022/03/15 01:30:35;;;;;;;7.77;3.63;;;4.50;99.90;;;;;;5057301;28;20262;-78
2022/03/15 01:33:01;;;;;;;6.10;4.07;;;4.50;99.90;;;;;;5075260;28;20238;-78
2022/03/15 01:35:26;;;;;;;8.93;3.80;;;4.50;99.90;;;;;;5075260;28;20174;-78
2022/03/15 01:37:52;;;;;;;9.03;3.87;;;4.50;99.90;;;;;;5075239;28;20186;-77
2022/03/15 01:40:17;;;;;;;6.90;4.50;;;4.50;99.90;;;;;;5074905;28;20190;-78
2022/03/15 01:42:43;;;;;;;8.27;4.20;;;4.50;99.90;;;;;;5075044;28;20679;-78
2022/03/15 01:45:10;;;;;;;7.57;4.30;;;4.50;99.90;;;;;;5075525;28;20169;-78
2022/03/15 01:47:35;;;;;;;8.00;5.20;;;4.40;99.90;;;;;;5057672;28;20649;-78
2022/03/15 01:50:02;;;;;;;10.17;5.30;;;4.40;99.90;;;;;;5057582;28;20204;-78
2022/03/15 01:52:27;;;;;;;9.33;4.80;;;4.50;99.90;;;;;;5075191;28;20217;-78
2022/03/15 01:54:53;;;;;;;8.93;4.90;;;4.50;99.90;;;;;;5074898;28;20656;-78
2022/03/15 01:57:18;;;;;;;8.30;5.30;;;4.50;99.90;;;;;;5056661;28;20236;-78
2022/03/15 01:59:44;;;;;;;9.00;4.97;;;4.50;99.90;;;;;;5075310;28;20170;-78
2022/03/15 02:02:10;;;;;;;6.83;4.20;;;4.40;99.90;;;;;;5057993;28;20177;-78
2022/03/15 02:04:36;;;;;;;7.23;5.47;;;4.40;99.90;;;;;;5075388;28;20694;-78
2022/03/15 02:07:09;;;;;;;9.07;6.07;;;4.40;99.90;;;;;;5058094;28;20556;-78
2022/03/15 02:09:35;;;;;;;8.27;5.80;;;4.40;99.90;;;;;;5076478;28;20163;-78
2022/03/15 02:12:01;;;;;;;10.10;5.40;;;4.40;99.90;;;;;;5058718;28;20259;-78
2022/03/15 02:14:27;;;;;;;6.67;4.73;;;4.40;99.90;;;;;;5058428;28;20285;-78
2022/03/15 02:16:53;;;;;;;11.73;5.20;;;4.40;99.90;;;;;;5083993;28;20163;-77
2022/03/15 02:19:19;;;;;;;9.90;5.53;;;4.40;99.90;;;;;;5065195;28;20175;-78
2022/03/15 02:21:45;;;;;;;8.63;5.10;;;4.40;99.90;;;;;;5076772;28;20176;-78
2022/03/15 02:24:10;;;;;;;8.33;5.10;;;4.40;99.90;;;;;;5056027;28;20704;-78
2022/03/15 02:26:36;;;;;;;10.87;5.30;;;4.40;99.90;;;;;;5074138;28;20175;-77
2022/03/15 02:29:01;;;;;;;8.60;5.63;;;4.40;99.90;;;;;;5074157;28;20210;-78
2022/03/15 02:31:27;;;;;;;10.80;5.23;;;4.40;99.90;;;;;;5074920;28;20230;-78
2022/03/15 02:33:53;;;;;;;8.60;5.70;;;4.40;99.90;;;;;;5073847;28;20236;-77
2022/03/15 02:36:18;;;;;;;11.07;5.40;;;4.40;99.90;;;;;;5074696;28;20221;-78
2022/03/15 02:38:45;;;;;;;7.47;5.47;;;4.40;99.90;;;;;;5074199;28;20249;-78
2022/03/15 02:41:11;;;;;;;8.80;6.13;;;4.40;99.90;;;;;;5055925;28;20170;-78
2022/03/15 02:43:38;;;;;;;7.90;5.63;;;4.40;99.90;;;;;;5056181;28;20206;-78
2022/03/15 02:46:03;;;;;;;10.67;5.80;;;4.30;99.90;;;;;;5074026;28;20671;-78
2022/03/15 02:48:29;;;;;;;15.57;5.67;;;4.40;99.90;;;;;;5074134;28;20159;-78
2022/03/15 02:50:57;;;;;;;11.20;5.70;;;4.40;99.90;;;;;;5055850;28;20175;-78
2022/03/15 02:53:22;;;;;;;8.03;5.70;;;4.40;99.90;;;;;;5056080;28;20577;-78
2022/03/15 02:55:48;;;;;;;10.97;6.60;;;4.40;99.90;;;;;;5074041;28;20167;-78
2022/03/15 02:58:14;;;;;;;13.67;6.10;;;4.40;99.90;;;;;;5056047;28;20173;-77
2022/03/15 03:00:39;;;;;;;9.70;5.73;;;4.40;99.90;;;;;;5073191;28;20178;-78
2022/03/15 03:03:05;;;;;;;8.60;6.10;;;4.50;99.90;;;;;;5082922;28;20716;-78
2022/03/15 03:05:30;;;;;;;12.87;6.53;;;4.40;99.90;;;;;;5094134;28;20228;-78
2022/03/15 03:07:56;;;;;;;11.73;7.00;;;4.50;99.90;;;;;;5072792;28;20182;-79
2022/03/15 03:10:22;;;;;;;11.57;5.97;;;4.50;99.90;;;;;;5073308;28;20560;-78
2022/03/15 03:12:48;;;;;;;9.43;6.30;;;4.50;99.90;;;;;;5084257;28;20206;-78
2022/03/15 03:15:21;;;;;;;9.43;6.07;;;4.50;99.90;;;;;;5072420;28;20179;-78
2022/03/15 03:17:46;;;;;;;9.83;5.93;;;4.50;99.90;;;;;;5074261;28;20648;-78
2022/03/15 03:20:21;;;;;;;10.57;6.93;;;4.50;99.90;;;;;;5077864;28;20185;-77
2022/03/15 03:22:50;;;;;;;11.40;6.47;;;4.50;99.90;;;;;;5081125;28;20208;-79
2022/03/15 03:25:16;;;;;;;9.60;6.17;;;4.60;99.90;;;;;;5077289;28;20261;-78
2022/03/15 03:27:42;;;;;;;8.43;6.20;;;4.50;99.90;;;;;;5083263;28;20186;-79
2022/03/15 03:30:09;;;;;;;11.73;6.07;;;4.60;99.90;;;;;;5091955;28;20193;-79
2022/03/15 03:32:35;;;;;;;10.83;5.90;;;4.60;99.90;;;;;;5095899;28;20706;-79
2022/03/15 03:35:04;;;;;;;10.10;5.53;;;4.60;99.90;;;;;;5099042;28;20177;-79
2022/03/15 03:37:31;;;;;;;9.20;5.93;;;4.60;99.90;;;;;;5081933;28;20179;-79
2022/03/15 03:39:57;;;;;;;10.50;6.73;;;4.60;99.90;;;;;;5082699;28;20194;-79
2022/03/15 03:42:23;;;;;;;10.37;6.60;;;4.60;99.90;;;;;;5098761;28;20190;-79
2022/03/15 03:44:49;;;;;;;11.10;5.93;;;4.60;99.90;;;;;;5097930;28;20167;-79
2022/03/15 03:47:14;;;;;;;11.73;6.10;;;4.60;99.90;;;;;;5093848;28;20194;-79
2022/03/15 03:49:40;;;;;;;8.83;6.10;;;4.60;99.90;;;;;;5098763;28;20196;-79
2022/03/15 03:52:07;;;;;;;9.07;5.93;;;4.60;99.90;;;;;;5099113;28;20202;-78
2022/03/15 03:54:33;;;;;;;9.23;5.77;;;4.60;99.90;;;;;;5091074;28;20205;-78
2022/03/15 03:56:59;;;;;;;8.50;5.87;;;4.60;99.90;;;;;;5091008;28;20671;-79
2022/03/15 03:59:24;;;;;;;7.40;5.23;;;4.60;99.90;;;;;;5080144;28;20201;-79
2022/03/15 04:01:50;;;;;;;7.30;5.30;;;4.60;99.90;;;;;;5066402;28;20236;-79
2022/03/15 04:04:16;;;;;;;12.73;5.97;;;4.60;99.90;;;;;;5085594;28;20198;-79
2022/03/15 04:06:41;;;;;;;7.37;5.43;;;4.60;99.90;;;;;;5083422;28;20536;-79
2022/03/15 04:09:09;;;;;;;9.27;6.00;;;4.70;99.90;;;;;;5098686;28;20188;-79
2022/03/15 04:11:36;;;;;;;9.03;5.33;;;4.60;99.90;;;;;;5097163;28;20228;-79
2022/03/15 04:14:03;;;;;;;7.73;5.23;;;4.60;99.90;;;;;;5109031;28;20190;-78
2022/03/15 04:16:30;;;;;;;7.53;5.50;;;4.70;99.90;;;;;;5108872;28;20201;-79
2022/03/15 04:18:56;;;;;;;8.17;5.60;;;4.60;99.90;;;;;;5098286;28;20252;-79
2022/03/15 04:21:24;;;;;;;9.23;5.47;;;4.70;99.90;;;;;;5060601;28;20190;-79
2022/03/15 04:23:51;;;;;;;8.07;5.37;;;4.70;99.90;;;;;;5075472;28;20191;-79
2022/03/15 04:26:18;;;;;;;7.17;5.30;;;4.70;99.90;;;;;;5057850;28;20257;-78
2022/03/15 04:28:43;;;;;;;10.30;5.60;;;4.60;99.90;;;;;;5075714;28;20178;-79
2022/03/15 04:31:09;;;;;;;7.43;4.90;;;4.70;99.90;;;;;;5059644;28;20179;-79
2022/03/15 04:33:34;;;;;;;10.83;6.23;;;4.70;99.90;;;;;;5077153;28;20190;-79
2022/03/15 04:36:00;;;;;;;6.93;5.40;;;4.70;99.90;;;;;;5074375;28;20197;-79
2022/03/15 04:38:25;;;;;;;9.50;5.10;;;4.70;99.90;;;;;;5091574;28;20651;-78
2022/03/15 04:40:51;;;;;;;11.07;5.53;;;4.70;99.90;;;;;;5096687;28;20174;-79
2022/03/15 04:43:17;;;;;;;12.03;5.70;;;4.70;99.90;;;;;;5076839;28;20229;-79
2022/03/15 04:45:42;;;;;;;9.63;5.60;;;4.70;99.90;;;;;;5096610;28;20598;-78
2022/03/15 04:48:08;;;;;;;9.50;5.33;;;4.70;99.90;;;;;;5077507;28;20574;-78
2022/03/15 04:50:34;;;;;;;10.03;5.97;;;4.70;99.90;;;;;;5075835;28;20262;-77
2022/03/15 04:52:59;;;;;;;10.47;5.73;;;4.70;99.90;;;;;;5076160;28;20213;-78
2022/03/15 04:55:25;;;;;;;10.53;5.50;;;4.70;99.90;;;;;;5096369;28;20704;-78
2022/03/15 04:57:51;;;;;;;10.43;5.67;;;4.70;99.90;;;;;;5062584;28;20273;-79
2022/03/15 05:00:17;;;;;;;11.87;5.90;;;4.70;99.90;;;;;;5075921;28;20167;-79
2022/03/15 05:02:44;;;;;;;7.67;5.20;;;4.70;99.90;;;;;;5073463;28;20578;-78
2022/03/15 05:05:10;;;;;;;6.93;5.20;;;4.70;99.90;;;;;;5094535;28;20174;-79
2022/03/15 05:07:36;;;;;;;10.50;5.73;;;4.70;99.90;;;;;;5079458;28;20218;-79
2022/03/15 05:12:47;;;;;;;8.13;5.93;;;4.70;99.90;;;;;;5089652;28;20221;-78
2022/03/15 05:15:12;;;;;;;6.97;5.17;;;4.70;99.90;;;;;;5089988;28;20175;-79
2022/03/15 05:17:38;;;;;;;11.47;5.40;;;4.70;99.90;;;;;;5107499;28;20197;-78
2022/03/15 05:20:05;;;;;;;10.87;5.47;;;4.70;99.90;;;;;;5107454;28;20231;-76
2022/03/15 05:22:32;;;;;;;6.20;4.63;;;4.70;99.90;;;;;;5094849;28;20183;-76
2022/03/15 05:24:58;;;;;;;9.20;4.70;;;4.70;99.90;;;;;;5097644;28;20175;-78
2022/03/15 05:27:23;;;;;;;7.77;5.10;;;4.70;99.90;;;;;;5099818;28;20233;-78
2022/03/15 05:29:49;;;;;;;6.73;4.57;;;4.70;99.90;;;;;;5096483;28;20185;-79
2022/03/15 05:32:14;;;;;;;6.43;4.87;;;4.70;99.90;;;;;;5075348;28;20202;-79
2022/03/15 05:34:40;;;;;;;6.57;4.67;;;4.70;99.90;;;;;;5090498;28;20171;-79
2022/03/15 05:37:08;;;;;;;9.93;5.03;;;4.70;99.90;;;;;;5072002;28;20178;-79
2022/03/15 05:39:35;;;;;;;12.70;5.30;;;4.70;99.90;;;;;;5087768;28;20167;-79
2022/03/15 05:42:01;;;;;;;11.57;5.20;;;4.70;99.90;;;;;;5088537;28;20189;-79
2022/03/15 05:44:27;;;;;;;7.40;4.40;;;4.60;99.90;;;;;;5071275;28;20190;-79
2022/03/15 05:46:53;;;;;;;8.40;4.80;;;4.70;99.90;;;;;;5087143;28;20201;-79
2022/03/15 05:49:19;;;;;;;9.17;4.90;;;4.70;99.90;;;;;;5071062;28;20551;-79
2022/03/15 05:51:45;;;;;;;12.57;5.03;;;4.70;99.90;;;;;;5067217;28;20672;-79
2022/03/15 05:54:10;;;;;;;6.53;4.67;;;4.70;99.90;;;;;;5082574;28;20206;-78
2022/03/15 05:56:39;;;;;;;6.77;4.50;;;4.70;99.90;;;;;;5086509;28;20261;-78
2022/03/15 05:59:05;;;;;;;9.27;4.70;;;4.70;99.90;;;;;;5083009;28;20196;-79
2022/03/15 06:01:30;;;;;;;7.40;4.30;;;4.70;99.90;;;;;;5087666;28;20186;-79
2022/03/15 06:03:56;;;;;;;6.03;4.50;;;4.70;99.90;;;;;;5088411;28;20310;-79
2022/03/15 06:06:22;;;;;;;7.07;4.40;;;4.70;99.90;;;;;;5096985;28;20639;-79
2022/03/15 06:08:51;;;;;;;7.33;4.73;;;4.70;99.90;;;;;;5083091;28;20179;-80
2022/03/15 06:11:17;;;;;;;9.73;4.53;;;4.70;99.90;;;;;;5093060;28;20609;-80
2022/03/15 06:13:43;;;;;;;8.23;4.50;;;4.70;99.90;;;;;;5095494;28;20202;-79
2022/03/15 06:16:09;;;;;;;6.07;4.13;;;4.80;99.90;;;;;;5098892;28;20182;-79
2022/03/15 06:18:34;;;;;;;7.97;4.70;;;4.70;99.90;;;;;;5109688;28;20178;-78
2022/03/15 06:21:00;;;;;;;5.87;4.27;;;4.70;99.90;;;;;;5089287;28;20200;-79
2022/03/15 06:23:26;;;;;;;8.90;4.80;;;4.80;99.90;;;;;;5100359;28;20201;-80
2022/03/15 06:25:51;;;;;;;7.73;4.70;;;4.80;99.90;;;;;;5081881;28;20182;-79
2022/03/15 06:28:17;;;;;;;10.27;4.60;;;4.80;99.90;;;;;;5081023;28;20178;-80
2022/03/15 06:30:44;;;;;;;10.27;4.90;;;4.80;99.90;;;;;;5099370;28;20197;-80
2022/03/15 06:33:10;;;;;;;5.77;4.40;;;4.80;99.90;;;;;;5098395;28;20222;-80
2022/03/15 06:35:36;;;;;;;9.67;4.70;;;4.80;99.90;;;;;;5098191;28;20175;-80
2022/03/15 06:38:01;;;;;;;8.23;4.50;;;4.80;99.90;;;;;;5079532;28;20170;-79
2022/03/15 06:40:29;;;;;;;7.97;4.63;;;4.90;99.90;;;;;;5096957;28;20166;-80
2022/03/15 06:42:55;;;;;;;12.17;4.97;;;4.90;99.90;;;;;;5078488;28;20214;-80
2022/03/15 06:45:22;;;;;;;5.47;3.90;;;5.00;99.90;;;;;;5098351;28;20256;-80
2022/03/15 06:47:48;;;;;;;7.33;4.27;;;5.00;99.90;;;;;;5096340;28;20186;-79
2022/03/15 06:50:14;;;;;;;8.10;4.37;;;5.00;99.90;;;;;;5079085;28;20182;-80
2022/03/15 06:52:43;;;;;;;8.67;4.77;;;5.00;99.90;;;;;;5097492;28;20208;-80
2022/03/15 06:55:10;;;;;;;10.40;3.87;;;5.00;99.90;;;;;;5078064;28;20170;-78
2022/03/15 06:57:36;;;;;;;6.57;4.33;;;5.10;99.90;;;;;;5096475;28;20173;-79
2022/03/15 07:00:07;;;;;;;7.40;4.43;;;5.10;99.90;;;;;;5096781;28;20171;-79
2022/03/15 07:02:33;;;;;;;7.60;4.63;;;5.20;99.90;;;;;;5082269;28;20288;-78
2022/03/15 07:04:58;;;;;;;8.50;5.07;;;5.20;99.90;;;;;;5101363;28;20225;-79
2022/03/15 07:07:24;;;;;;;8.57;4.50;;;5.30;99.90;;;;;;5100537;28;20175;-79
2022/03/15 07:09:50;;;;;;;6.90;4.93;;;5.30;99.90;;;;;;5100563;28;20178;-79
2022/03/15 07:12:16;;;;;;;7.60;4.60;;;5.30;99.90;;;;;;5081960;28;20228;-79
2022/03/15 07:14:43;;;;;;;9.17;4.60;;;5.40;99.90;;;;;;5081955;28;20178;-78
2022/03/15 07:17:08;;;;;;;7.70;4.13;;;5.40;99.90;;;;;;5100710;28;20163;-79
2022/03/15 07:19:34;;;;;;;9.03;4.33;;;5.50;99.90;;;;;;5100696;28;20177;-79
2022/03/15 07:22:00;;;;;;;7.27;4.40;;;5.50;99.90;;;;;;5100308;28;20182;-79
2022/03/15 07:24:25;;;;;;;7.07;4.33;;;5.50;99.90;;;;;;5082232;28;20194;-79
2022/03/15 07:26:51;;;;;;;5.67;4.50;;;5.60;99.90;;;;;;5101458;28;20259;-79
2022/03/15 07:29:16;;;;;;;7.93;4.53;;;5.60;99.90;;;;;;5082723;28;20178;-77
2022/03/15 07:31:42;;;;;;;6.30;4.60;;;5.70;99.90;;;;;;5082713;28;20712;-79
2022/03/15 07:34:07;;;;;;;9.80;4.77;;;5.70;99.90;;;;;;5101482;28;20638;-79
2022/03/15 07:36:35;;;;;;;8.00;4.83;;;5.80;99.90;;;;;;5102690;28;20209;-78
2022/03/15 07:39:02;;;;;;;9.47;4.57;;;5.80;99.90;;;;;;5099779;28;20182;-79
2022/03/15 07:41:27;;;;;;;7.77;4.63;;;5.90;99.90;;;;;;5099282;28;20667;-79
2022/03/15 07:43:53;;;;;;;6.93;4.80;;;5.90;99.90;;;;;;5080449;28;20198;-78
2022/03/15 07:46:18;;;;;;;7.97;5.10;;;5.90;99.90;;;;;;5080623;28;20182;-79
2022/03/15 07:48:44;;;;;;;8.10;5.00;;;6.00;99.90;;;;;;5098846;28;20232;-79
2022/03/15 07:51:10;;;;;;;7.90;4.57;;;6.00;99.90;;;;;;5080392;28;20185;-79
2022/03/15 07:53:36;;;;;;;10.17;5.10;;;6.10;99.90;;;;;;5098910;28;20186;-79
2022/03/15 07:56:01;;;;;;;10.47;4.33;;;6.10;99.90;;;;;;5099462;28;20635;-78
2022/03/15 07:58:28;;;;;;;7.43;4.40;;;6.20;99.90;;;;;;5099172;28;20182;-79
2022/03/15 08:00:57;;;;;;;11.17;4.70;;;6.30;99.90;;;;;;5081194;28;20178;-79
2022/03/15 08:03:26;;;;;;;6.57;4.23;;;6.40;99.90;;;;;;5099798;28;20265;-79
2022/03/15 08:05:52;;;;;;;8.13;4.27;;;6.40;99.90;;;;;;5098860;28;20166;-79
2022/03/15 08:08:18;;;;;;;7.80;4.93;;;6.50;99.90;;;;;;5080867;28;20179;-79
2022/03/15 08:10:43;;;;;;;8.57;4.73;;;6.50;99.90;;;;;;5098984;28;20216;-79
2022/03/15 08:13:09;;;;;;;7.97;4.37;;;6.60;99.90;;;;;;5079644;28;20210;-79
2022/03/15 08:15:35;;;;;;;7.70;4.50;;;6.70;99.90;;;;;;5099337;28;20189;-79
2022/03/15 08:18:03;;;;;;;7.27;3.67;;;6.80;99.90;;;;;;5099099;28;20209;-78
2022/03/15 08:20:39;;;;;;;10.40;4.53;;;6.90;99.90;;;;;;5081213;28;20170;-79
2022/03/15 08:23:04;;;;;;;7.43;4.20;;;6.90;99.90;;;;;;5098485;28;20587;-79
2022/03/15 08:25:30;;;;;;;6.00;3.90;;;7.00;99.90;;;;;;5099515;28;20171;-78
2022/03/15 08:27:57;;;;;;;8.50;3.70;;;7.10;99.90;;;;;;5098668;28;20223;-79
2022/03/15 08:30:23;;;;;;;7.63;3.83;;;7.10;99.90;;;;;;5100114;28;20167;-80
2022/03/15 08:32:48;;;;;;;6.70;3.60;;;7.20;99.90;;;;;;5099386;28;20606;-79
2022/03/15 08:35:14;;;;;;;6.60;3.57;;;7.30;99.90;;;;;;5099557;28;20176;-80
2022/03/15 08:37:42;;;;;;;7.13;4.00;;;7.40;99.90;;;;;;5099712;28;20213;-79
2022/03/15 08:40:08;;;;;;;8.53;3.97;;;7.50;99.90;;;;;;5098643;28;20167;-78
2022/03/15 08:42:34;;;;;;;9.67;3.80;;;7.50;99.90;;;;;;5097919;28;20201;-79
2022/03/15 08:45:00;;;;;;;6.60;3.63;;;7.50;99.90;;;;;;5080149;28;20216;-79
2022/03/15 08:47:26;;;;;;;6.00;3.53;;;7.60;99.90;;;;;;5098427;28;20189;-79
2022/03/15 08:49:52;;;;;;;7.53;3.67;;;7.70;99.90;;;;;;5098837;28;20647;-78
2022/03/15 08:52:17;;;;;;;9.00;3.67;;;7.70;99.90;;;;;;5098549;28;20201;-79
2022/03/15 08:54:43;;;;;;;6.90;2.87;;;7.80;99.90;;;;;;5080594;28;20177;-79
2022/03/15 08:57:09;;;;;;;5.93;2.83;;;7.80;99.90;;;;;;5098361;28;20166;-79
2022/03/15 08:59:34;;;;;;;7.13;3.00;;;7.90;99.90;;;;;;5098391;28;20167;-79
2022/03/15 09:02:01;;;;;;;6.80;3.00;;;8.00;99.90;;;;;;5080604;28;20636;-80
2022/03/15 09:04:27;;;;;;;9.63;3.07;;;8.00;99.90;;;;;;5098774;28;20668;-79
2022/03/15 09:06:53;;;;;;;10.30;3.57;;;8.10;99.90;;;;;;5080011;28;20601;-80
2022/03/15 09:09:21;;;;;;;7.70;4.00;;;8.10;99.90;;;;;;5098534;28;20170;-79
2022/03/15 09:11:47;;;;;;;7.03;2.70;;;8.20;99.90;;;;;;5098740;28;20244;-79
2022/03/15 09:14:14;;;;;;;10.37;2.77;;;8.30;99.90;;;;;;5080231;28;20209;-80
2022/03/15 09:16:39;;;;;;;6.23;2.33;;;8.30;99.90;;;;;;5099076;28;20166;-79
2022/03/15 09:19:06;;;;;;;6.23;2.87;;;8.40;99.90;;;;;;5099538;28;20538;-80
2022/03/15 09:21:32;;;;;;;6.83;2.57;;;8.40;99.90;;;;;;5100604;28;20174;-80
2022/03/15 09:23:58;;;;;;;6.10;3.10;;;8.50;99.90;;;;;;5083101;28;20187;-79
2022/03/15 09:26:26;;;;;;;7.47;2.73;;;8.60;99.90;;;;;;5079977;28;20224;-79
2022/03/15 09:28:52;;;;;;;4.83;2.57;;;8.60;99.90;;;;;;5079697;28;20170;-79
2022/03/15 09:31:20;;;;;;;6.87;3.07;;;8.70;99.90;;;;;;5097565;28;20171;-79
2022/03/15 09:33:45;;;;;;;6.20;2.87;;;8.70;99.90;;;;;;5079545;28;20190;-79
2022/03/15 09:36:12;;;;;;;7.33;2.80;;;8.80;99.90;;;;;;5079283;28;20174;-79
2022/03/15 09:38:38;;;;;;;5.37;2.80;;;8.80;99.90;;;;;;5098619;28;20167;-78
2022/03/15 09:41:05;;;;;;;9.30;2.50;;;8.90;99.90;;;;;;5099865;28;20206;-79
2022/03/15 09:43:38;;;;;;;8.20;2.53;;;8.90;99.90;;;;;;5105417;28;20190;-78
2022/03/15 09:46:08;;;;;;;7.57;2.90;;;9.00;99.90;;;;;;5108893;28;20213;-79
2022/03/15 09:48:34;;;;;;;11.83;2.77;;;9.00;99.90;;;;;;5107035;28;20155;-78
2022/03/15 09:51:04;;;;;;;3.97;2.20;;;9.10;99.90;;;;;;5097123;28;20174;-79
2022/03/15 09:53:33;;;;;;;5.43;2.60;;;9.10;99.90;;;;;;5096495;28;20202;-79
2022/03/15 09:55:58;;;;;;;6.53;2.53;;;9.20;99.90;;;;;;5077786;28;20171;-79
2022/03/15 09:58:24;;;;;;;8.20;2.40;;;9.20;99.90;;;;;;5078139;28;20224;-79
2022/03/15 10:00:52;;;;;;;8.17;2.37;;;9.30;99.90;;;;;;5096399;28;20163;-79
2022/03/15 10:03:18;;;;;;;6.87;2.80;;;9.20;99.90;;;;;;5078315;28;20240;-79
2022/03/15 10:05:49;;;;;;;12.20;2.80;;;9.30;99.90;;;;;;5078272;28;20171;-80
2022/03/15 10:08:15;;;;;;;6.43;2.23;;;9.30;99.90;;;;;;5096590;28;20568;-79
2022/03/15 10:10:42;;;;;;;7.80;2.40;;;9.40;99.90;;;;;;5078073;28;20178;-79
2022/03/15 10:13:08;;;;;;;5.90;2.30;;;9.40;99.90;;;;;;5096422;28;20205;-80
2022/03/15 10:15:34;;;;;;;4.13;2.50;;;9.40;99.90;;;;;;5096724;28;20169;-79
2022/03/15 10:18:04;;;;;;;5.97;2.37;;;9.50;99.90;;;;;;5078413;28;20581;-80
2022/03/15 10:20:39;;;;;;;6.30;2.07;;;9.50;99.90;;;;;;5096674;28;20211;-80
2022/03/15 10:23:05;;;;;;;8.07;2.00;;;9.50;99.90;;;;;;5097256;28;20256;-80
2022/03/15 10:25:32;;;;;;;5.87;2.63;;;9.50;99.90;;;;;;5097139;28;20170;-79
2022/03/15 10:28:01;;;;;;;10.97;2.67;;;9.60;99.90;;;;;;5078772;28;20204;-79
2022/03/15 10:30:29;;;;;;;4.67;2.23;;;9.60;99.90;;;;;;5078982;28;20185;-79
2022/03/15 10:32:55;;;;;;;5.97;2.47;;;9.70;99.90;;;;;;5078570;28;20213;-80
2022/03/15 10:35:23;;;;;;;7.30;2.63;;;9.70;99.90;;;;;;5096612;28;20351;-79
2022/03/15 10:37:50;;;;;;;3.60;2.20;;;9.80;99.90;;;;;;5079059;28;20178;-80
2022/03/15 10:40:16;;;;;;;5.73;3.10;;;9.80;99.90;;;;;;5078936;28;20170;-80
2022/03/15 10:42:44;;;;;;;5.53;2.40;;;9.80;99.90;;;;;;5098136;28;20186;-79
2022/03/15 10:45:20;;;;;;;4.20;2.43;;;9.90;99.90;;;;;;5080635;28;20174;-79
2022/03/15 10:47:51;;;;;;;6.23;2.50;;;9.90;99.90;;;;;;5088787;28;20215;-79
2022/03/15 10:50:17;;;;;;;7.57;2.87;;;10.00;99.90;;;;;;5088401;28;20585;-79
2022/03/15 10:52:44;;;;;;;6.80;2.73;;;10.00;99.90;;;;;;5097009;28;20209;-80
2022/03/15 10:55:25;;;;;;;6.50;2.77;;;10.10;99.90;;;;;;5078792;28;20178;-80
2022/03/15 10:58:05;;;;;;;6.53;3.00;;;10.10;99.90;;;;;;5096803;28;20178;-80
2022/03/15 11:00:36;;;;;;;5.97;2.87;;;10.10;99.90;;;;;;5078575;28;20177;-79
2022/03/15 11:03:06;;;;;;;5.13;2.23;;;10.20;99.90;;;;;;5078414;28;20194;-80
2022/03/15 11:05:34;;;;;;;4.70;2.57;;;10.20;99.90;;;;;;5097699;28;20212;-80
2022/03/15 11:08:08;;;;;;;6.63;2.43;;;10.30;99.90;;;;;;5097010;28;20617;-80
2022/03/15 11:10:38;;;;;;;4.83;2.60;;;10.30;99.90;;;;;;5081479;28;20177;-78
2022/03/15 11:13:11;;;;;;;9.53;2.23;;;10.30;99.90;;;;;;5079187;28;20206;-79
2022/03/15 11:15:50;;;;;;;5.67;2.77;;;10.30;99.90;;;;;;5095612;28;20204;-79
2022/03/15 11:18:17;;;;;;;4.97;2.70;;;10.40;99.90;;;;;;5095833;28;20169;-79
2022/03/15 11:20:47;;;;;;;6.67;3.30;;;10.40;99.90;;;;;;5095236;28;20245;-79
2022/03/15 11:23:14;;;;;;;4.50;2.70;;;10.40;99.90;;;;;;5095371;28;20194;-80
2022/03/15 11:25:49;;;;;;;7.90;2.90;;;10.40;99.90;;;;;;5076443;28;20228;-79
2022/03/15 11:28:20;;;;;;;5.57;2.50;;;10.50;99.90;;;;;;5095405;28;20666;-79
2022/03/15 11:30:45;;;;;;;4.10;2.30;;;10.50;99.90;;;;;;5096419;28;20184;-80
2022/03/15 11:33:12;;;;;;;8.17;3.17;;;10.50;99.90;;;;;;5095738;28;20210;-80
2022/03/15 11:35:39;;;;;;;4.13;2.70;;;10.60;99.90;;;;;;5095224;28;20166;-79
2022/03/15 11:38:08;;;;;;;8.10;3.17;;;10.60;99.90;;;;;;5095347;28;20273;-80
2022/03/15 11:40:34;;;;;;;6.23;2.67;;;10.60;99.90;;;;;;5097125;28;20230;-79
2022/03/15 11:43:14;;;;;;;4.97;2.63;;;10.70;99.90;;;;;;5078113;28;20229;-79
2022/03/15 11:45:53;;;;;;;3.73;2.63;;;10.70;99.90;;;;;;5095943;28;20216;-80
2022/03/15 11:48:47;;;;;;;4.03;2.87;;;10.70;99.90;;;;;;5097986;28;20535;-80
2022/03/15 11:51:31;;;;;;;9.57;3.07;;;10.80;99.90;;;;;;5099627;28;20178;-80
2022/03/15 11:54:32;;;;;;;7.53;2.50;;;10.80;1.00;;;;;;5079956;28;20297;-79
2022/03/15 11:57:03;;;;;;;6.00;2.70;;;10.90;1.00;;;;;;5098553;28;20158;-79
2022/03/15 11:59:49;;;;;;;4.83;2.80;;;10.90;1.00;;;;;;5098125;28;20162;-79
2022/03/15 12:02:27;;;;;;;5.87;2.50;;;10.90;1.00;;;;;;5079740;28;20166;-79
2022/03/15 12:04:53;;;;;;;6.83;2.47;;;10.90;1.00;;;;;;5079743;28;20205;-79
2022/03/15 12:07:45;;;;;;;4.47;2.47;;;10.90;99.90;;;;;;5098036;28;20166;-79
2022/03/15 12:10:11;;;;;;;3.70;2.27;;;11.00;99.90;;;;;;5097710;28;20166;-78
2022/03/15 12:12:40;;;;;;;5.03;2.53;;;11.00;99.90;;;;;;5096907;28;20209;-79
2022/03/15 12:15:15;;;;;;;4.80;2.30;;;11.00;23.70;;;;;;5078952;28;20185;-77
2022/03/15 12:17:42;;;;;;;7.10;2.37;;;11.10;59.10;;;;;;5078812;28;20170;-78
2022/03/15 12:20:14;;;;;;;5.00;2.57;;;11.10;1.00;;;;;;5097125;28;20175;-78
2022/03/15 12:22:42;;;;;;;15.37;4.10;;;11.20;99.90;;;;;;5079167;28;20224;-79
2022/03/15 12:25:11;;;;;;;3.43;2.17;;;11.30;1.00;;;;;;5097986;28;20184;-78
2022/03/15 12:27:41;;;;;;;4.63;2.50;;;11.30;99.90;;;;;;5097045;28;20174;-78
2022/03/15 12:30:08;;;;;;;4.83;2.50;;;11.40;1.00;;;;;;5097295;28;20640;-78
2022/03/15 12:32:33;;;;;;;7.80;3.37;;;11.40;1.00;;;;;;5078710;28;20236;-78
2022/03/15 12:34:59;;;;;;;5.57;2.53;;;11.40;1.00;;;;;;5096916;28;20174;-78
2022/03/15 12:37:28;;;;;;;6.33;2.60;;;11.40;99.90;;;;;;5097624;28;20198;-78
2022/03/15 12:39:55;;;;;;;7.77;3.17;;;11.50;99.90;;;;;;5097447;28;20173;-79
2022/03/15 12:42:24;;;;;;;8.20;3.20;;;11.50;1.00;;;;;;5079190;28;20182;-78
2022/03/15 12:45:08;;;;;;;5.60;2.37;;;11.50;99.90;;;;;;5098645;28;20174;-79
2022/03/15 12:47:38;;;;;;;8.40;3.10;;;11.50;91.00;;;;;;5096874;28;20194;-78
2022/03/15 12:50:04;;;;;;;3.73;2.30;;;11.50;1.00;;;;;;5081498;28;20174;-79
2022/03/15 12:52:42;;;;;;;5.47;3.23;;;11.50;99.90;;;;;;5098353;28;20205;-79
2022/03/15 12:55:19;;;;;;;5.07;2.70;;;11.60;1.00;;;;;;5103030;28;20189;-78